sensor_id;sensor_type;location;lat;lon;timestamp;temperature;humidity
12268;DHT22;6196;48.398;11.736;2022-07-29T00:00:03;20.70;99.90
12268;DHT22;6196;48.398;11.736;2022-07-29T00:02:31;20.70;99.90
12268;DHT22;6196;48.398;11.736;2022-07-29T00:04:59;20.60;99.90
12268;DHT22;6196;48.398;11.736;2022-07-29T00:07:26;20.50;99.90
12268;DHT22;6196;48.398;11.736;2022-07-29T00:09:53;20.50;99.90
12268;DHT22;6196;48.398;11.736;2022-07-29T00:12:22;20.40;99.90
12268;DHT22;6196;48.398;11.736;2022-07-29T00:14:54;20.40;99.90
12268;DHT22;6196;48.398;11.736;2022-07-29T00:17:22;20.40;99.90
12268;DHT22;6196;48.398;11.736;2022-07-29T00:19:49;20.40;99.90
12268;DHT22;6196;48.398;11.736;2022-07-29T00:22:16;20.40;99.90
12268;DHT22;6196;48.398;11.736;2022-07-29T00:24:43;20.40;99.90
12268;DHT22;6196;48.398;11.736;2022-07-29T00:27:12;20.40;99.90
12268;DHT22;6196;48.398;11.736;2022-07-29T00:29:39;20.40;99.90
12268;DHT22;6196;48.398;11.736;2022-07-29T00:32:06;20.40;99.90
12268;DHT22;6196;48.398;11.736;2022-07-29T00:34:33;20.40;99.90
12268;DHT22;6196;48.398;11.736;2022-07-29T00:37:18;20.30;99.90
12268;DHT22;6196;48.398;11.736;2022-07-29T00:39:45;20.30;99.90
12268;DHT22;6196;48.398;11.736;2022-07-29T00:42:12;20.30;99.90
12268;DHT22;6196;48.398;11.736;2022-07-29T00:44:40;20.20;99.90
12268;DHT22;6196;48.398;11.736;2022-07-29T00:47:09;20.00;99.90
12268;DHT22;6196;48.398;11.736;2022-07-29T00:49:39;20.00;99.90
12268;DHT22;6196;48.398;11.736;2022-07-29T00:52:08;20.00;99.90
12268;DHT22;6196;48.398;11.736;2022-07-29T00:54:38;20.00;99.90
12268;DHT22;6196;48.398;11.736;2022-07-29T00:57:11;20.00;99.90
12268;DHT22;6196;48.398;11.736;2022-07-29T00:59:38;19.90;99.90
12268;DHT22;6196;48.398;11.736;2022-07-29T01:02:05;19.30;99.90
12268;DHT22;6196;48.398;11.736;2022-07-29T01:04:32;19.20;99.90
12268;DHT22;6196;48.398;11.736;2022-07-29T01:07:03;19.30;99.90
12268;DHT22;6196;48.398;11.736;2022-07-29T01:09:35;19.40;99.90
12268;DHT22;6196;48.398;11.736;2022-07-29T01:12:19;19.40;99.90
12268;DHT22;6196;48.398;11.736;2022-07-29T01:14:49;19.50;99.90
12268;DHT22;6196;48.398;11.736;2022-07-29T01:17:26;19.50;99.90
12268;DHT22;6196;48.398;11.736;2022-07-29T01:25:12;19.40;99.90
12268;DHT22;6196;48.398;11.736;2022-07-29T01:30:38;19.20;99.90
12268;DHT22;6196;48.398;11.736;2022-07-29T01:33:13;19.20;99.90
12268;DHT22;6196;48.398;11.736;2022-07-29T01:36:10;19.20;99.90
12268;DHT22;6196;48.398;11.736;2022-07-29T01:38:41;19.10;99.90
12268;DHT22;6196;48.398;11.736;2022-07-29T01:41:15;19.10;99.90
12268;DHT22;6196;48.398;11.736;2022-07-29T01:44:02;19.20;99.90
12268;DHT22;6196;48.398;11.736;2022-07-29T01:46:42;19.20;99.90
12268;DHT22;6196;48.398;11.736;2022-07-29T01:49:18;19.30;99.90
12268;DHT22;6196;48.398;11.736;2022-07-29T01:51:51;19.30;99.90
12268;DHT22;6196;48.398;11.736;2022-07-29T01:54:31;19.30;99.90
12268;DHT22;6196;48.398;11.736;2022-07-29T01:57:06;19.30;99.90
12268;DHT22;6196;48.398;11.736;2022-07-29T01:59:36;19.40;99.90
12268;DHT22;6196;48.398;11.736;2022-07-29T02:02:06;19.30;99.90
12268;DHT22;6196;48.398;11.736;2022-07-29T02:04:37;19.30;99.90
12268;DHT22;6196;48.398;11.736;2022-07-29T02:07:07;19.30;99.90
12268;DHT22;6196;48.398;11.736;2022-07-29T02:09:38;19.20;99.90
12268;DHT22;6196;48.398;11.736;2022-07-29T02:12:07;19.10;99.90
12268;DHT22;6196;48.398;11.736;2022-07-29T02:14:39;19.10;99.90
12268;DHT22;6196;48.398;11.736;2022-07-29T02:17:09;19.00;99.90
12268;DHT22;6196;48.398;11.736;2022-07-29T02:19:38;19.00;99.90
12268;DHT22;6196;48.398;11.736;2022-07-29T02:22:06;19.00;99.90
12268;DHT22;6196;48.398;11.736;2022-07-29T02:24:35;18.90;99.90
12268;DHT22;6196;48.398;11.736;2022-07-29T02:27:04;18.70;99.90
12268;DHT22;6196;48.398;11.736;2022-07-29T02:29:32;18.70;99.90
12268;DHT22;6196;48.398;11.736;2022-07-29T02:32:01;18.80;99.90
12268;DHT22;6196;48.398;11.736;2022-07-29T02:34:29;18.70;99.90
12268;DHT22;6196;48.398;11.736;2022-07-29T02:36:56;18.70;99.90
12268;DHT22;6196;48.398;11.736;2022-07-29T02:39:24;18.80;99.90
12268;DHT22;6196;48.398;11.736;2022-07-29T02:41:59;18.80;99.90
12268;DHT22;6196;48.398;11.736;2022-07-29T02:44:29;18.80;99.90
12268;DHT22;6196;48.398;11.736;2022-07-29T02:47:40;18.70;99.90
12268;DHT22;6196;48.398;11.736;2022-07-29T02:50:13;18.70;99.90
12268;DHT22;6196;48.398;11.736;2022-07-29T02:58:13;18.70;99.90
12268;DHT22;6196;48.398;11.736;2022-07-29T03:00:46;18.80;99.90
12268;DHT22;6196;48.398;11.736;2022-07-29T03:03:16;18.80;99.90
12268;DHT22;6196;48.398;11.736;2022-07-29T03:05:44;18.90;99.90
12268;DHT22;6196;48.398;11.736;2022-07-29T03:08:12;19.00;99.90
12268;DHT22;6196;48.398;11.736;2022-07-29T03:10:44;18.80;99.90
12268;DHT22;6196;48.398;11.736;2022-07-29T03:13:12;18.70;99.90
12268;DHT22;6196;48.398;11.736;2022-07-29T03:15:39;18.70;99.90
12268;DHT22;6196;48.398;11.736;2022-07-29T03:18:10;18.70;99.90
12268;DHT22;6196;48.398;11.736;2022-07-29T03:20:37;18.70;99.90
12268;DHT22;6196;48.398;11.736;2022-07-29T03:23:05;18.60;99.90
12268;DHT22;6196;48.398;11.736;2022-07-29T03:25:32;18.60;99.90
12268;DHT22;6196;48.398;11.736;2022-07-29T03:27:59;18.50;99.90
12268;DHT22;6196;48.398;11.736;2022-07-29T03:30:26;18.50;99.90
12268;DHT22;6196;48.398;11.736;2022-07-29T03:32:52;18.50;99.90
12268;DHT22;6196;48.398;11.736;2022-07-29T03:35:22;18.40;99.90
12268;DHT22;6196;48.398;11.736;2022-07-29T03:37:49;18.40;99.90
12268;DHT22;6196;48.398;11.736;2022-07-29T03:40:42;18.40;99.90
12268;DHT22;6196;48.398;11.736;2022-07-29T03:43:13;18.40;99.90
12268;DHT22;6196;48.398;11.736;2022-07-29T03:45:45;18.40;99.90
12268;DHT22;6196;48.398;11.736;2022-07-29T03:48:17;18.40;99.90
12268;DHT22;6196;48.398;11.736;2022-07-29T03:50:46;18.40;99.90
12268;DHT22;6196;48.398;11.736;2022-07-29T03:53:13;18.40;99.90
12268;DHT22;6196;48.398;11.736;2022-07-29T03:55:45;18.30;99.90
12268;DHT22;6196;48.398;11.736;2022-07-29T03:58:30;18.30;99.90
12268;DHT22;6196;48.398;11.736;2022-07-29T04:00:58;18.30;99.90
12268;DHT22;6196;48.398;11.736;2022-07-29T04:03:25;18.30;99.90
12268;DHT22;6196;48.398;11.736;2022-07-29T04:06:01;18.30;99.90
12268;DHT22;6196;48.398;11.736;2022-07-29T04:08:29;18.30;99.90
12268;DHT22;6196;48.398;11.736;2022-07-29T04:10:56;18.30;99.90
12268;DHT22;6196;48.398;11.736;2022-07-29T04:13:23;18.30;99.90
12268;DHT22;6196;48.398;11.736;2022-07-29T04:15:50;18.30;99.90
12268;DHT22;6196;48.398;11.736;2022-07-29T04:18:16;18.20;99.90
12268;DHT22;6196;48.398;11.736;2022-07-29T04:20:43;18.30;99.90
12268;DHT22;6196;48.398;11.736;2022-07-29T04:23:10;18.30;99.90
12268;DHT22;6196;48.398;11.736;2022-07-29T04:25:39;18.30;99.90
12268;DHT22;6196;48.398;11.736;2022-07-29T04:28:07;18.30;99.90
12268;DHT22;6196;48.398;11.736;2022-07-29T04:30:35;18.30;99.90
12268;DHT22;6196;48.398;11.736;2022-07-29T04:33:05;18.30;99.90
12268;DHT22;6196;48.398;11.736;2022-07-29T04:35:35;18.40;99.90
12268;DHT22;6196;48.398;11.736;2022-07-29T04:38:15;18.40;99.90
12268;DHT22;6196;48.398;11.736;2022-07-29T04:40:42;18.30;99.90
12268;DHT22;6196;48.398;11.736;2022-07-29T04:43:09;18.10;99.90
12268;DHT22;6196;48.398;11.736;2022-07-29T04:45:39;18.00;99.90
12268;DHT22;6196;48.398;11.736;2022-07-29T04:48:06;18.10;99.90
12268;DHT22;6196;48.398;11.736;2022-07-29T04:50:33;18.20;99.90
12268;DHT22;6196;48.398;11.736;2022-07-29T04:53:00;18.30;99.90
12268;DHT22;6196;48.398;11.736;2022-07-29T04:55:27;18.30;99.90
12268;DHT22;6196;48.398;11.736;2022-07-29T04:57:54;18.30;99.90
12268;DHT22;6196;48.398;11.736;2022-07-29T05:00:21;18.20;99.90
12268;DHT22;6196;48.398;11.736;2022-07-29T05:02:58;18.10;99.90
12268;DHT22;6196;48.398;11.736;2022-07-29T05:05:26;17.80;99.90
12268;DHT22;6196;48.398;11.736;2022-07-29T05:07:52;18.00;99.90
12268;DHT22;6196;48.398;11.736;2022-07-29T05:10:19;18.10;99.90
12268;DHT22;6196;48.398;11.736;2022-07-29T05:12:46;18.20;99.90
12268;DHT22;6196;48.398;11.736;2022-07-29T05:15:13;18.30;99.90
12268;DHT22;6196;48.398;11.736;2022-07-29T05:17:40;18.40;99.90
12268;DHT22;6196;48.398;11.736;2022-07-29T05:20:08;18.50;99.90
12268;DHT22;6196;48.398;11.736;2022-07-29T05:22:35;18.60;99.90
12268;DHT22;6196;48.398;11.736;2022-07-29T05:25:02;18.60;99.90
12268;DHT22;6196;48.398;11.736;2022-07-29T05:27:35;18.70;99.90
12268;DHT22;6196;48.398;11.736;2022-07-29T05:30:03;18.70;99.90
12268;DHT22;6196;48.398;11.736;2022-07-29T05:32:30;18.70;99.90
12268;DHT22;6196;48.398;11.736;2022-07-29T05:34:58;18.70;99.90
12268;DHT22;6196;48.398;11.736;2022-07-29T05:37:25;18.80;99.90
12268;DHT22;6196;48.398;11.736;2022-07-29T05:39:52;18.90;99.90
12268;DHT22;6196;48.398;11.736;2022-07-29T05:42:23;19.00;99.90
12268;DHT22;6196;48.398;11.736;2022-07-29T05:47:19;19.40;99.90
12268;DHT22;6196;48.398;11.736;2022-07-29T05:49:46;19.70;99.90
12268;DHT22;6196;48.398;11.736;2022-07-29T05:52:13;19.90;99.90
12268;DHT22;6196;48.398;11.736;2022-07-29T05:54:40;20.10;99.90
12268;DHT22;6196;48.398;11.736;2022-07-29T05:57:07;20.30;99.90
12268;DHT22;6196;48.398;11.736;2022-07-29T05:59:38;20.40;99.90
12268;DHT22;6196;48.398;11.736;2022-07-29T06:02:05;20.60;99.90
12268;DHT22;6196;48.398;11.736;2022-07-29T06:04:32;20.60;99.90
12268;DHT22;6196;48.398;11.736;2022-07-29T06:07:00;20.80;99.90
12268;DHT22;6196;48.398;11.736;2022-07-29T06:09:28;20.90;99.90
12268;DHT22;6196;48.398;11.736;2022-07-29T06:11:55;21.10;99.90
12268;DHT22;6196;48.398;11.736;2022-07-29T06:14:22;21.30;99.90
12268;DHT22;6196;48.398;11.736;2022-07-29T06:16:49;21.40;99.90
12268;DHT22;6196;48.398;11.736;2022-07-29T06:19:16;21.70;99.90
12268;DHT22;6196;48.398;11.736;2022-07-29T06:21:43;21.90;99.90
12268;DHT22;6196;48.398;11.736;2022-07-29T06:24:14;22.30;99.90
12268;DHT22;6196;48.398;11.736;2022-07-29T06:26:42;22.50;99.90
12268;DHT22;6196;48.398;11.736;2022-07-29T06:29:10;22.90;99.90
12268;DHT22;6196;48.398;11.736;2022-07-29T06:31:37;23.20;99.90
12268;DHT22;6196;48.398;11.736;2022-07-29T06:34:05;23.40;99.90
12268;DHT22;6196;48.398;11.736;2022-07-29T06:36:37;23.70;99.90
12268;DHT22;6196;48.398;11.736;2022-07-29T06:39:08;23.70;99.90
12268;DHT22;6196;48.398;11.736;2022-07-29T06:41:37;23.60;99.90
12268;DHT22;6196;48.398;11.736;2022-07-29T06:44:04;23.90;99.90
12268;DHT22;6196;48.398;11.736;2022-07-29T06:46:31;24.20;99.90
12268;DHT22;6196;48.398;11.736;2022-07-29T06:48:59;23.90;99.90
12268;DHT22;6196;48.398;11.736;2022-07-29T06:51:28;24.10;99.90
12268;DHT22;6196;48.398;11.736;2022-07-29T06:53:55;24.20;99.90
12268;DHT22;6196;48.398;11.736;2022-07-29T06:56:33;24.00;99.90
12268;DHT22;6196;48.398;11.736;2022-07-29T06:59:06;23.30;99.90
12268;DHT22;6196;48.398;11.736;2022-07-29T07:01:40;23.70;99.90
12268;DHT22;6196;48.398;11.736;2022-07-29T07:04:09;24.20;99.90
12268;DHT22;6196;48.398;11.736;2022-07-29T07:06:37;24.10;99.90
12268;DHT22;6196;48.398;11.736;2022-07-29T07:09:04;24.60;99.90
12268;DHT22;6196;48.398;11.736;2022-07-29T07:11:31;24.80;99.90
12268;DHT22;6196;48.398;11.736;2022-07-29T07:13:58;24.60;99.90
12268;DHT22;6196;48.398;11.736;2022-07-29T07:16:30;23.90;99.90
12268;DHT22;6196;48.398;11.736;2022-07-29T07:18:58;24.20;99.90
12268;DHT22;6196;48.398;11.736;2022-07-29T07:21:25;24.00;99.90
12268;DHT22;6196;48.398;11.736;2022-07-29T07:23:56;23.80;99.90
12268;DHT22;6196;48.398;11.736;2022-07-29T07:26:22;23.70;99.90
12268;DHT22;6196;48.398;11.736;2022-07-29T07:28:49;24.30;99.90
12268;DHT22;6196;48.398;11.736;2022-07-29T07:31:16;25.00;99.90
12268;DHT22;6196;48.398;11.736;2022-07-29T07:33:43;25.30;99.90
12268;DHT22;6196;48.398;11.736;2022-07-29T07:36:10;25.50;99.90
12268;DHT22;6196;48.398;11.736;2022-07-29T07:38:37;25.80;99.90
12268;DHT22;6196;48.398;11.736;2022-07-29T07:41:04;26.00;99.90
12268;DHT22;6196;48.398;11.736;2022-07-29T07:43:31;25.80;99.90
12268;DHT22;6196;48.398;11.736;2022-07-29T07:45:58;25.70;99.90
12268;DHT22;6196;48.398;11.736;2022-07-29T07:48:25;25.60;99.90
12268;DHT22;6196;48.398;11.736;2022-07-29T07:50:52;26.20;99.90
12268;DHT22;6196;48.398;11.736;2022-07-29T07:53:20;26.50;99.90
12268;DHT22;6196;48.398;11.736;2022-07-29T07:55:47;26.70;99.90
12268;DHT22;6196;48.398;11.736;2022-07-29T07:58:34;26.60;99.90
12268;DHT22;6196;48.398;11.736;2022-07-29T08:01:02;26.90;99.90
12268;DHT22;6196;48.398;11.736;2022-07-29T08:03:29;27.00;99.90
12268;DHT22;6196;48.398;11.736;2022-07-29T08:05:56;27.10;99.90
12268;DHT22;6196;48.398;11.736;2022-07-29T08:08:23;27.20;99.90
12268;DHT22;6196;48.398;11.736;2022-07-29T08:10:50;27.30;99.90
12268;DHT22;6196;48.398;11.736;2022-07-29T08:13:21;27.50;99.90
12268;DHT22;6196;48.398;11.736;2022-07-29T08:15:49;27.80;99.90
12268;DHT22;6196;48.398;11.736;2022-07-29T08:18:30;27.70;99.90
12268;DHT22;6196;48.398;11.736;2022-07-29T08:20:58;27.80;99.90
12268;DHT22;6196;48.398;11.736;2022-07-29T08:23:25;28.00;99.90
12268;DHT22;6196;48.398;11.736;2022-07-29T08:26:12;27.20;99.90
12268;DHT22;6196;48.398;11.736;2022-07-29T08:28:41;26.70;99.90
12268;DHT22;6196;48.398;11.736;2022-07-29T08:31:13;26.00;99.90
12268;DHT22;6196;48.398;11.736;2022-07-29T08:33:40;26.20;99.90
12268;DHT22;6196;48.398;11.736;2022-07-29T08:36:07;26.80;99.90
12268;DHT22;6196;48.398;11.736;2022-07-29T08:38:34;27.00;99.90
12268;DHT22;6196;48.398;11.736;2022-07-29T08:41:01;26.80;99.90
12268;DHT22;6196;48.398;11.736;2022-07-29T08:43:28;27.20;99.90
12268;DHT22;6196;48.398;11.736;2022-07-29T08:45:55;27.50;99.90
12268;DHT22;6196;48.398;11.736;2022-07-29T08:48:23;27.40;99.90
12268;DHT22;6196;48.398;11.736;2022-07-29T08:50:54;27.20;99.90
12268;DHT22;6196;48.398;11.736;2022-07-29T08:53:24;27.10;99.90
12268;DHT22;6196;48.398;11.736;2022-07-29T08:55:53;27.60;99.90
12268;DHT22;6196;48.398;11.736;2022-07-29T08:58:21;27.90;99.90
12268;DHT22;6196;48.398;11.736;2022-07-29T09:00:53;28.00;99.90
12268;DHT22;6196;48.398;11.736;2022-07-29T09:03:30;28.60;99.90
12268;DHT22;6196;48.398;11.736;2022-07-29T09:06:02;29.20;99.90
12268;DHT22;6196;48.398;11.736;2022-07-29T09:08:33;29.10;99.90
12268;DHT22;6196;48.398;11.736;2022-07-29T09:11:01;28.00;99.90
12268;DHT22;6196;48.398;11.736;2022-07-29T09:13:31;27.70;99.90
12268;DHT22;6196;48.398;11.736;2022-07-29T09:15:58;27.50;99.90
12268;DHT22;6196;48.398;11.736;2022-07-29T09:18:39;27.60;99.90
12268;DHT22;6196;48.398;11.736;2022-07-29T09:21:10;28.20;99.90
12268;DHT22;6196;48.398;11.736;2022-07-29T09:24:09;28.40;99.90
12268;DHT22;6196;48.398;11.736;2022-07-29T09:29:18;28.00;99.90
12268;DHT22;6196;48.398;11.736;2022-07-29T09:31:50;28.60;99.90
12268;DHT22;6196;48.398;11.736;2022-07-29T09:34:26;29.40;99.90
12268;DHT22;6196;48.398;11.736;2022-07-29T09:36:56;29.80;99.90
12268;DHT22;6196;48.398;11.736;2022-07-29T09:42:00;30.20;99.90
12268;DHT22;6196;48.398;11.736;2022-07-29T09:44:50;30.40;99.90
12268;DHT22;6196;48.398;11.736;2022-07-29T09:47:18;30.00;99.90
12268;DHT22;6196;48.398;11.736;2022-07-29T09:49:55;29.90;99.90
12268;DHT22;6196;48.398;11.736;2022-07-29T09:52:28;29.80;99.90
12268;DHT22;6196;48.398;11.736;2022-07-29T09:55:09;29.30;99.90
12268;DHT22;6196;48.398;11.736;2022-07-29T09:57:45;29.00;99.90
12268;DHT22;6196;48.398;11.736;2022-07-29T10:00:18;28.70;99.90
12268;DHT22;6196;48.398;11.736;2022-07-29T10:02:46;28.70;99.90
12268;DHT22;6196;48.398;11.736;2022-07-29T10:05:23;28.60;99.90
12268;DHT22;6196;48.398;11.736;2022-07-29T10:08:01;28.60;99.90
12268;DHT22;6196;48.398;11.736;2022-07-29T10:10:30;29.10;99.90
12268;DHT22;6196;48.398;11.736;2022-07-29T10:13:03;29.10;99.90
12268;DHT22;6196;48.398;11.736;2022-07-29T10:15:42;29.40;99.90
12268;DHT22;6196;48.398;11.736;2022-07-29T10:18:13;29.50;99.90
12268;DHT22;6196;48.398;11.736;2022-07-29T10:20:40;29.50;99.90
12268;DHT22;6196;48.398;11.736;2022-07-29T10:23:08;29.90;99.90
12268;DHT22;6196;48.398;11.736;2022-07-29T10:25:36;28.90;99.90
12268;DHT22;6196;48.398;11.736;2022-07-29T10:28:05;28.70;99.90
12268;DHT22;6196;48.398;11.736;2022-07-29T10:30:33;28.90;99.90
12268;DHT22;6196;48.398;11.736;2022-07-29T10:39:15;30.20;99.90
12268;DHT22;6196;48.398;11.736;2022-07-29T10:42:18;30.30;99.90
12268;DHT22;6196;48.398;11.736;2022-07-29T10:45:00;30.40;99.90
12268;DHT22;6196;48.398;11.736;2022-07-29T10:47:27;29.70;99.90
12268;DHT22;6196;48.398;11.736;2022-07-29T10:49:59;29.70;99.90
12268;DHT22;6196;48.398;11.736;2022-07-29T10:55:36;29.80;99.90
12268;DHT22;6196;48.398;11.736;2022-07-29T10:58:14;29.00;99.90
12268;DHT22;6196;48.398;11.736;2022-07-29T11:00:49;28.70;99.90
12268;DHT22;6196;48.398;11.736;2022-07-29T11:03:43;28.90;99.90
12268;DHT22;6196;48.398;11.736;2022-07-29T11:06:16;29.70;99.90
12268;DHT22;6196;48.398;11.736;2022-07-29T11:09:15;30.50;99.90
12268;DHT22;6196;48.398;11.736;2022-07-29T11:15:07;31.20;99.90
12268;DHT22;6196;48.398;11.736;2022-07-29T11:26:15;30.60;99.90
12268;DHT22;6196;48.398;11.736;2022-07-29T11:31:39;31.00;99.90
12268;DHT22;6196;48.398;11.736;2022-07-29T11:45:06;31.90;99.50
12268;DHT22;6196;48.398;11.736;2022-07-29T11:47:57;31.70;99.90
12268;DHT22;6196;48.398;11.736;2022-07-29T11:50:46;31.90;99.90
12268;DHT22;6196;48.398;11.736;2022-07-29T11:53:14;32.10;99.50
12268;DHT22;6196;48.398;11.736;2022-07-29T11:55:41;32.60;99.40
12268;DHT22;6196;48.398;11.736;2022-07-29T11:58:29;33.40;98.20
12268;DHT22;6196;48.398;11.736;2022-07-29T12:00:57;34.00;95.80
12268;DHT22;6196;48.398;11.736;2022-07-29T12:03:30;32.30;95.20
12268;DHT22;6196;48.398;11.736;2022-07-29T12:06:23;32.10;97.80
12268;DHT22;6196;48.398;11.736;2022-07-29T12:08:49;32.30;95.90
12268;DHT22;6196;48.398;11.736;2022-07-29T12:11:20;31.20;94.90
12268;DHT22;6196;48.398;11.736;2022-07-29T12:13:50;31.50;95.80
12268;DHT22;6196;48.398;11.736;2022-07-29T12:16:18;31.90;96.90
12268;DHT22;6196;48.398;11.736;2022-07-29T12:19:04;31.50;95.90
12268;DHT22;6196;48.398;11.736;2022-07-29T12:21:47;30.80;97.60
12268;DHT22;6196;48.398;11.736;2022-07-29T12:24:23;31.30;97.60
12268;DHT22;6196;48.398;11.736;2022-07-29T12:26:57;31.20;96.30
12268;DHT22;6196;48.398;11.736;2022-07-29T12:29:25;31.30;94.40
12268;DHT22;6196;48.398;11.736;2022-07-29T12:32:03;31.40;95.70
12268;DHT22;6196;48.398;11.736;2022-07-29T12:34:40;31.90;97.50
12268;DHT22;6196;48.398;11.736;2022-07-29T12:37:09;31.70;95.60
12268;DHT22;6196;48.398;11.736;2022-07-29T12:39:36;32.30;94.40
12268;DHT22;6196;48.398;11.736;2022-07-29T12:42:14;31.70;94.00
12268;DHT22;6196;48.398;11.736;2022-07-29T12:44:49;32.00;94.60
12268;DHT22;6196;48.398;11.736;2022-07-29T12:47:19;32.10;91.60
12268;DHT22;6196;48.398;11.736;2022-07-29T12:49:47;31.00;92.30
12268;DHT22;6196;48.398;11.736;2022-07-29T12:52:29;30.70;92.00
12268;DHT22;6196;48.398;11.736;2022-07-29T12:54:57;31.00;93.50
12268;DHT22;6196;48.398;11.736;2022-07-29T12:57:49;32.00;93.50
12268;DHT22;6196;48.398;11.736;2022-07-29T13:00:23;32.70;91.90
12268;DHT22;6196;48.398;11.736;2022-07-29T13:02:58;33.30;92.30
12268;DHT22;6196;48.398;11.736;2022-07-29T13:05:45;33.60;90.70
12268;DHT22;6196;48.398;11.736;2022-07-29T13:08:16;32.70;90.00
12268;DHT22;6196;48.398;11.736;2022-07-29T13:10:47;32.90;88.90
12268;DHT22;6196;48.398;11.736;2022-07-29T13:13:15;33.00;86.50
12268;DHT22;6196;48.398;11.736;2022-07-29T13:15:43;33.00;88.40
12268;DHT22;6196;48.398;11.736;2022-07-29T13:18:29;33.00;88.10
12268;DHT22;6196;48.398;11.736;2022-07-29T13:20:57;32.20;86.40
12268;DHT22;6196;48.398;11.736;2022-07-29T13:23:24;31.70;87.60
12268;DHT22;6196;48.398;11.736;2022-07-29T13:25:51;31.20;88.20
12268;DHT22;6196;48.398;11.736;2022-07-29T13:28:19;30.80;90.10
12268;DHT22;6196;48.398;11.736;2022-07-29T13:30:47;30.70;91.00
12268;DHT22;6196;48.398;11.736;2022-07-29T13:33:14;30.50;92.10
12268;DHT22;6196;48.398;11.736;2022-07-29T13:35:41;30.00;93.20
12268;DHT22;6196;48.398;11.736;2022-07-29T13:38:08;29.60;94.60
12268;DHT22;6196;48.398;11.736;2022-07-29T13:40:35;29.60;94.20
12268;DHT22;6196;48.398;11.736;2022-07-29T13:43:03;29.40;94.70
12268;DHT22;6196;48.398;11.736;2022-07-29T13:45:30;29.10;95.00
12268;DHT22;6196;48.398;11.736;2022-07-29T13:47:57;28.50;95.30
12268;DHT22;6196;48.398;11.736;2022-07-29T13:50:24;28.10;95.20
12268;DHT22;6196;48.398;11.736;2022-07-29T13:52:51;28.10;96.20
12268;DHT22;6196;48.398;11.736;2022-07-29T13:55:18;28.00;96.60
12268;DHT22;6196;48.398;11.736;2022-07-29T13:57:45;27.90;97.50
12268;DHT22;6196;48.398;11.736;2022-07-29T14:00:12;27.90;96.80
12268;DHT22;6196;48.398;11.736;2022-07-29T14:02:40;27.60;96.90
12268;DHT22;6196;48.398;11.736;2022-07-29T14:05:08;27.30;97.60
12268;DHT22;6196;48.398;11.736;2022-07-29T14:07:37;27.30;98.40
12268;DHT22;6196;48.398;11.736;2022-07-29T14:10:08;27.00;98.50
12268;DHT22;6196;48.398;11.736;2022-07-29T14:12:35;27.00;98.40
12268;DHT22;6196;48.398;11.736;2022-07-29T14:15:03;26.70;99.30
12268;DHT22;6196;48.398;11.736;2022-07-29T14:17:30;27.00;99.30
12268;DHT22;6196;48.398;11.736;2022-07-29T14:19:57;26.90;99.10
12268;DHT22;6196;48.398;11.736;2022-07-29T14:22:35;27.00;99.50
12268;DHT22;6196;48.398;11.736;2022-07-29T14:25:08;26.90;99.50
12268;DHT22;6196;48.398;11.736;2022-07-29T14:27:41;26.90;99.90
12268;DHT22;6196;48.398;11.736;2022-07-29T14:30:09;27.00;99.80
12268;DHT22;6196;48.398;11.736;2022-07-29T14:32:36;27.00;99.90
12268;DHT22;6196;48.398;11.736;2022-07-29T14:35:04;27.20;99.80
12268;DHT22;6196;48.398;11.736;2022-07-29T14:37:32;27.30;99.90
12268;DHT22;6196;48.398;11.736;2022-07-29T14:40:07;27.50;99.90
12268;DHT22;6196;48.398;11.736;2022-07-29T14:42:35;27.20;99.90
12268;DHT22;6196;48.398;11.736;2022-07-29T14:45:05;27.20;99.90
12268;DHT22;6196;48.398;11.736;2022-07-29T14:47:33;26.90;99.90
12268;DHT22;6196;48.398;11.736;2022-07-29T14:50:00;27.00;99.90
12268;DHT22;6196;48.398;11.736;2022-07-29T14:52:27;26.90;99.90
12268;DHT22;6196;48.398;11.736;2022-07-29T14:54:54;26.70;99.90
12268;DHT22;6196;48.398;11.736;2022-07-29T14:57:21;26.80;99.90
12268;DHT22;6196;48.398;11.736;2022-07-29T14:59:48;26.60;99.90
12268;DHT22;6196;48.398;11.736;2022-07-29T15:02:15;26.50;99.90
12268;DHT22;6196;48.398;11.736;2022-07-29T15:04:42;26.50;99.90
12268;DHT22;6196;48.398;11.736;2022-07-29T15:07:10;26.60;99.90
12268;DHT22;6196;48.398;11.736;2022-07-29T15:09:37;26.40;99.90
12268;DHT22;6196;48.398;11.736;2022-07-29T15:12:15;26.20;99.90
12268;DHT22;6196;48.398;11.736;2022-07-29T15:14:42;26.00;99.90
12268;DHT22;6196;48.398;11.736;2022-07-29T15:17:09;25.80;99.90
12268;DHT22;6196;48.398;11.736;2022-07-29T15:19:36;25.50;99.90
12268;DHT22;6196;48.398;11.736;2022-07-29T15:22:10;25.50;99.90
12268;DHT22;6196;48.398;11.736;2022-07-29T15:24:37;25.50;99.90
12268;DHT22;6196;48.398;11.736;2022-07-29T15:27:03;25.60;99.90
12268;DHT22;6196;48.398;11.736;2022-07-29T15:29:31;25.60;99.90
12268;DHT22;6196;48.398;11.736;2022-07-29T15:31:58;25.60;99.90
12268;DHT22;6196;48.398;11.736;2022-07-29T15:34:26;25.60;99.90
12268;DHT22;6196;48.398;11.736;2022-07-29T15:36:52;25.60;99.90
12268;DHT22;6196;48.398;11.736;2022-07-29T15:39:21;25.50;99.90
12268;DHT22;6196;48.398;11.736;2022-07-29T15:41:48;25.60;99.90
12268;DHT22;6196;48.398;11.736;2022-07-29T15:44:16;25.60;99.90
12268;DHT22;6196;48.398;11.736;2022-07-29T15:46:44;25.50;99.90
12268;DHT22;6196;48.398;11.736;2022-07-29T15:49:38;25.30;99.90
12268;DHT22;6196;48.398;11.736;2022-07-29T15:52:16;25.40;99.90
12268;DHT22;6196;48.398;11.736;2022-07-29T15:54:55;25.50;99.90
12268;DHT22;6196;48.398;11.736;2022-07-29T15:57:23;25.60;99.90
12268;DHT22;6196;48.398;11.736;2022-07-29T15:59:50;25.60;99.90
12268;DHT22;6196;48.398;11.736;2022-07-29T16:02:18;25.70;99.90
12268;DHT22;6196;48.398;11.736;2022-07-29T16:04:45;25.70;99.90
12268;DHT22;6196;48.398;11.736;2022-07-29T16:07:12;25.80;99.90
12268;DHT22;6196;48.398;11.736;2022-07-29T16:09:41;25.90;99.90
12268;DHT22;6196;48.398;11.736;2022-07-29T16:12:08;26.00;99.90
12268;DHT22;6196;48.398;11.736;2022-07-29T16:14:43;26.00;99.90
12268;DHT22;6196;48.398;11.736;2022-07-29T16:17:10;26.00;99.90
12268;DHT22;6196;48.398;11.736;2022-07-29T16:19:41;26.00;99.90
12268;DHT22;6196;48.398;11.736;2022-07-29T16:22:09;26.00;99.90
12268;DHT22;6196;48.398;11.736;2022-07-29T16:24:36;26.00;99.90
12268;DHT22;6196;48.398;11.736;2022-07-29T16:27:04;25.90;99.90
12268;DHT22;6196;48.398;11.736;2022-07-29T16:29:31;25.90;99.90
12268;DHT22;6196;48.398;11.736;2022-07-29T16:31:58;25.90;99.90
12268;DHT22;6196;48.398;11.736;2022-07-29T16:34:25;25.80;99.90
12268;DHT22;6196;48.398;11.736;2022-07-29T16:36:52;25.90;99.90
12268;DHT22;6196;48.398;11.736;2022-07-29T16:39:18;25.90;99.90
12268;DHT22;6196;48.398;11.736;2022-07-29T16:41:45;25.90;99.90
12268;DHT22;6196;48.398;11.736;2022-07-29T16:44:12;25.80;99.90
12268;DHT22;6196;48.398;11.736;2022-07-29T16:46:43;25.80;99.90